This is the latest recevied weather packets stored in our database for station/object K0FJ-1. If no packets are shown the sender has not sent any weather packets the latest 10 day(s).
| Time | Temp. | Humidity | Pressure | Rain* | Wind** | Luminosity | Snow |
|---|---|---|---|---|---|---|---|
| 1787894103 | 18.33° C | 81% | 1024.2 hPa | 0 mm | - | - | - |
| 1787893803 | 18.89° C | 80% | 1024.2 hPa | 0 mm | - | - | - |
| 1787893503 | 18.89° C | 79% | 1024.5 hPa | 0 mm | - | - | - |
| 1787893204 | 18.89° C | 78% | 1024.6 hPa | 0 mm | - | - | - |
| 1787892903 | 19.44° C | 77% | 1024.6 hPa | 0 mm | - | - | - |
| 1787892603 | 19.44° C | 74% | 1024.5 hPa | 0 mm | - | - | - |
| 1787892303 | 20.56° C | 72% | 1024.7 hPa | 0 mm | - | - | - |
| 1787892003 | 21.67° C | 68% | 1024 hPa | 0 mm | - | - | - |
| 1787891703 | 23.89° C | 63% | 1024.3 hPa | 0 mm | - | - | - |
| 1787891403 | 25° C | 66% | 1022.6 hPa | 0 mm | - | - | - |
| 1787891103 | 25.56° C | 65% | 1021.9 hPa | 0 mm | - | - | - |
| 1787890803 | 25.56° C | 64% | 1021.8 hPa | 0 mm | - | - | - |
| 1787890503 | 25.56° C | 63% | 1021.5 hPa | 0 mm | - | - | - |
| 1787890203 | 25.56° C | 63% | 1021.5 hPa | 0 mm | - | - | - |
| 1787889903 | 25.56° C | 63% | 1021.4 hPa | 0 mm | - | - | - |
| 1787889603 | 25.56° C | 63% | 1021.2 hPa | 0 mm | - | - | - |
| 1787889303 | 25.56° C | 63% | 1021 hPa | 0 mm | - | - | - |
| 1787889003 | 25.56° C | 63% | 1021.1 hPa | 0 mm | - | - | - |
| 1787888703 | 25.56° C | 63% | 1021 hPa | 0 mm | - | - | - |
| 1787888403 | 25.56° C | 63% | 1021 hPa | 0 mm | - | - | - |
| 1787888103 | 25.56° C | 63% | 1021 hPa | 0 mm | - | - | - |
| 1787887803 | 25.56° C | 63% | 1021 hPa | 0 mm | - | - | - |
| 1787887503 | 25.56° C | 63% | 1020.9 hPa | 0 mm | - | - | - |
| 1787887203 | 25.56° C | 63% | 1021 hPa | 0 mm | - | - | - |
| 1787886903 | 25.56° C | 63% | 1020.8 hPa | 0 mm | - | - | - |
* Rain latest hour (hover to see other rain measurements)
** Current wind speed in m/s (hover to see current wind gust speed)